Terminal Aerodrome Forecast
Issued by NWS

Home | Current Version | Previous Version | Text Only | Print | Product List | Glossary On
Versions: 1 2 3 4 5 6 7 8 9 10 11 12 13 14 15 16 17 18 19 20 21 22 23 24 25 26 27 28 29 30 31 32 33 34 35 36 37 38 39 40
000
FTAK31 PANC 181145
TAFASN
TAF
PASN 181145Z 1812/1912 23015G25KT 1 1/2SM -SHRA BR OVC002
     FM182100 26022G32KT 3SM -RA BR BKN003 OVC008
     FM190400 30025G40KT 4SM -SHRA BR SCT008 BKN015 OVC025=

USA.gov is the U.S. government's official web portal to all federal, state and local government web resources and services.